sensor_id;sensor_type;location;lat;lon;timestamp;pressure;altitude;pressure_sealevel;temperature;humidity
30081;BME280;16902;50.816;12.828;2023-05-09T00:03:34;98368.88;;;6.02;100.00
30081;BME280;16902;50.816;12.828;2023-05-09T00:08:36;98368.47;;;5.97;100.00
30081;BME280;16902;50.816;12.828;2023-05-09T00:13:38;98363.00;;;5.90;100.00
30081;BME280;16902;50.816;12.828;2023-05-09T00:18:41;98368.69;;;5.84;100.00
30081;BME280;16902;50.816;12.828;2023-05-09T00:23:43;98375.34;;;5.67;100.00
30081;BME280;16902;50.816;12.828;2023-05-09T00:28:45;98365.78;;;5.49;100.00
30081;BME280;16902;50.816;12.828;2023-05-09T00:33:47;98366.41;;;5.31;100.00
30081;BME280;16902;50.816;12.828;2023-05-09T00:38:49;98356.19;;;5.20;100.00
30081;BME280;16902;50.816;12.828;2023-05-09T00:43:51;98354.44;;;5.30;100.00
30081;BME280;16902;50.816;12.828;2023-05-09T00:48:54;98344.47;;;5.56;100.00
30081;BME280;16902;50.816;12.828;2023-05-09T00:53:57;98343.94;;;5.62;100.00
30081;BME280;16902;50.816;12.828;2023-05-09T00:58:59;98340.91;;;5.48;100.00
30081;BME280;16902;50.816;12.828;2023-05-09T01:04:01;98332.44;;;5.26;100.00
30081;BME280;16902;50.816;12.828;2023-05-09T01:09:13;98321.22;;;5.06;100.00
30081;BME280;16902;50.816;12.828;2023-05-09T01:14:32;98328.13;;;4.96;100.00
30081;BME280;16902;50.816;12.828;2023-05-09T01:30:04;98322.94;;;4.86;100.00
30081;BME280;16902;50.816;12.828;2023-05-09T01:35:11;98314.63;;;4.83;100.00
30081;BME280;16902;50.816;12.828;2023-05-09T01:40:18;98320.59;;;4.83;100.00
30081;BME280;16902;50.816;12.828;2023-05-09T01:45:22;98325.06;;;4.81;100.00
30081;BME280;16902;50.816;12.828;2023-05-09T01:50:25;98319.59;;;4.65;100.00
30081;BME280;16902;50.816;12.828;2023-05-09T01:55:31;98317.59;;;4.48;100.00
30081;BME280;16902;50.816;12.828;2023-05-09T02:00:35;98324.31;;;4.39;100.00
30081;BME280;16902;50.816;12.828;2023-05-09T02:05:37;98310.38;;;4.21;100.00
30081;BME280;16902;50.816;12.828;2023-05-09T02:10:41;98316.28;;;4.11;100.00
30081;BME280;16902;50.816;12.828;2023-05-09T02:15:43;98309.59;;;4.09;100.00
30081;BME280;16902;50.816;12.828;2023-05-09T02:20:45;98304.25;;;4.01;100.00
30081;BME280;16902;50.816;12.828;2023-05-09T02:25:48;98302.94;;;3.85;100.00
30081;BME280;16902;50.816;12.828;2023-05-09T02:30:52;98299.81;;;3.71;100.00
30081;BME280;16902;50.816;12.828;2023-05-09T02:35:55;98291.56;;;3.56;100.00
30081;BME280;16902;50.816;12.828;2023-05-09T02:40:57;98296.34;;;3.60;100.00
30081;BME280;16902;50.816;12.828;2023-05-09T02:46:00;98296.72;;;3.56;100.00
30081;BME280;16902;50.816;12.828;2023-05-09T02:51:02;98283.78;;;3.46;100.00
30081;BME280;16902;50.816;12.828;2023-05-09T02:56:05;98279.25;;;3.27;100.00
30081;BME280;16902;50.816;12.828;2023-05-09T03:01:07;98276.22;;;3.22;100.00
30081;BME280;16902;50.816;12.828;2023-05-09T03:06:10;98271.56;;;3.16;100.00
30081;BME280;16902;50.816;12.828;2023-05-09T03:11:12;98268.28;;;3.14;100.00
30081;BME280;16902;50.816;12.828;2023-05-09T03:16:16;98261.41;;;3.03;100.00
30081;BME280;16902;50.816;12.828;2023-05-09T03:21:19;98258.50;;;2.97;100.00
30081;BME280;16902;50.816;12.828;2023-05-09T03:26:21;98255.97;;;2.74;100.00
30081;BME280;16902;50.816;12.828;2023-05-09T03:31:23;98263.13;;;2.71;100.00
30081;BME280;16902;50.816;12.828;2023-05-09T03:36:25;98261.34;;;2.60;100.00
30081;BME280;16902;50.816;12.828;2023-05-09T03:41:28;98251.88;;;2.49;100.00
30081;BME280;16902;50.816;12.828;2023-05-09T03:46:30;98255.16;;;2.40;100.00
30081;BME280;16902;50.816;12.828;2023-05-09T03:51:33;98244.06;;;2.40;100.00
30081;BME280;16902;50.816;12.828;2023-05-09T03:56:37;98252.69;;;2.50;100.00
30081;BME280;16902;50.816;12.828;2023-05-09T04:01:39;98244.63;;;2.66;100.00
30081;BME280;16902;50.816;12.828;2023-05-09T04:06:42;98239.97;;;2.71;100.00
30081;BME280;16902;50.816;12.828;2023-05-09T04:11:44;98243.69;;;2.78;100.00
30081;BME280;16902;50.816;12.828;2023-05-09T04:16:48;98250.56;;;2.89;100.00
30081;BME280;16902;50.816;12.828;2023-05-09T04:21:50;98242.69;;;3.13;100.00
30081;BME280;16902;50.816;12.828;2023-05-09T04:26:52;98244.84;;;3.28;100.00
30081;BME280;16902;50.816;12.828;2023-05-09T04:31:57;98246.78;;;3.47;100.00
30081;BME280;16902;50.816;12.828;2023-05-09T04:37:00;98234.41;;;3.73;100.00
30081;BME280;16902;50.816;12.828;2023-05-09T04:42:03;98232.97;;;4.01;100.00
30081;BME280;16902;50.816;12.828;2023-05-09T04:47:05;98231.84;;;4.25;100.00
30081;BME280;16902;50.816;12.828;2023-05-09T04:52:07;98230.13;;;4.35;100.00
30081;BME280;16902;50.816;12.828;2023-05-09T04:57:09;98223.47;;;4.63;100.00
30081;BME280;16902;50.816;12.828;2023-05-09T05:02:24;98230.69;;;5.29;100.00
30081;BME280;16902;50.816;12.828;2023-05-09T05:07:27;98224.81;;;5.65;100.00
30081;BME280;16902;50.816;12.828;2023-05-09T05:12:29;98222.63;;;6.09;100.00
30081;BME280;16902;50.816;12.828;2023-05-09T05:17:32;98223.72;;;6.54;100.00
30081;BME280;16902;50.816;12.828;2023-05-09T05:22:36;98218.22;;;7.12;100.00
30081;BME280;16902;50.816;12.828;2023-05-09T05:27:38;98226.28;;;7.44;100.00
30081;BME280;16902;50.816;12.828;2023-05-09T05:32:43;98218.97;;;7.76;100.00
30081;BME280;16902;50.816;12.828;2023-05-09T05:37:47;98214.59;;;8.02;100.00
30081;BME280;16902;50.816;12.828;2023-05-09T05:42:50;98215.38;;;8.20;100.00
30081;BME280;16902;50.816;12.828;2023-05-09T05:47:52;98206.03;;;8.36;100.00
30081;BME280;16902;50.816;12.828;2023-05-09T05:52:56;98202.50;;;8.71;100.00
30081;BME280;16902;50.816;12.828;2023-05-09T05:57:58;98195.31;;;9.07;100.00
30081;BME280;16902;50.816;12.828;2023-05-09T06:03:00;98199.22;;;9.11;100.00
30081;BME280;16902;50.816;12.828;2023-05-09T06:08:11;98193.25;;;9.35;100.00
30081;BME280;16902;50.816;12.828;2023-05-09T06:13:13;98178.78;;;9.65;100.00
30081;BME280;16902;50.816;12.828;2023-05-09T06:18:19;98180.41;;;9.83;100.00
30081;BME280;16902;50.816;12.828;2023-05-09T06:23:21;98170.16;;;9.81;100.00
30081;BME280;16902;50.816;12.828;2023-05-09T06:28:23;98161.34;;;10.07;100.00
30081;BME280;16902;50.816;12.828;2023-05-09T06:33:25;98156.25;;;10.29;100.00
30081;BME280;16902;50.816;12.828;2023-05-09T06:38:27;98147.00;;;10.66;100.00
30081;BME280;16902;50.816;12.828;2023-05-09T06:43:29;98152.56;;;10.94;100.00
30081;BME280;16902;50.816;12.828;2023-05-09T06:48:31;98149.44;;;10.99;100.00
30081;BME280;16902;50.816;12.828;2023-05-09T06:53:33;98143.53;;;11.28;100.00
30081;BME280;16902;50.816;12.828;2023-05-09T06:58:35;98134.53;;;11.53;100.00
30081;BME280;16902;50.816;12.828;2023-05-09T07:03:37;98129.06;;;11.63;100.00
30081;BME280;16902;50.816;12.828;2023-05-09T07:08:39;98119.97;;;11.74;100.00
30081;BME280;16902;50.816;12.828;2023-05-09T07:13:41;98123.22;;;12.14;100.00
30081;BME280;16902;50.816;12.828;2023-05-09T07:18:43;98115.97;;;12.30;100.00
30081;BME280;16902;50.816;12.828;2023-05-09T07:23:45;98103.34;;;12.49;100.00
30081;BME280;16902;50.816;12.828;2023-05-09T07:28:47;98098.25;;;12.77;100.00
30081;BME280;16902;50.816;12.828;2023-05-09T07:33:48;98101.47;;;13.00;100.00
30081;BME280;16902;50.816;12.828;2023-05-09T07:38:50;98080.69;;;13.13;100.00
30081;BME280;16902;50.816;12.828;2023-05-09T07:43:54;98081.13;;;13.38;100.00
30081;BME280;16902;50.816;12.828;2023-05-09T07:48:56;98082.00;;;13.46;100.00
30081;BME280;16902;50.816;12.828;2023-05-09T07:53:57;98074.13;;;14.08;100.00
30081;BME280;16902;50.816;12.828;2023-05-09T07:58:59;98065.72;;;14.20;100.00
30081;BME280;16902;50.816;12.828;2023-05-09T08:04:02;98057.97;;;14.46;100.00
30081;BME280;16902;50.816;12.828;2023-05-09T08:09:07;98051.41;;;14.77;100.00
30081;BME280;16902;50.816;12.828;2023-05-09T08:14:09;98057.50;;;14.90;100.00
30081;BME280;16902;50.816;12.828;2023-05-09T08:19:11;98039.34;;;15.15;100.00
30081;BME280;16902;50.816;12.828;2023-05-09T08:24:13;98040.16;;;15.23;100.00
30081;BME280;16902;50.816;12.828;2023-05-09T08:29:15;98036.31;;;15.72;100.00
30081;BME280;16902;50.816;12.828;2023-05-09T08:34:19;98029.59;;;15.76;100.00
30081;BME280;16902;50.816;12.828;2023-05-09T08:39:21;98022.94;;;15.80;100.00
30081;BME280;16902;50.816;12.828;2023-05-09T08:44:24;98021.03;;;16.07;100.00
30081;BME280;16902;50.816;12.828;2023-05-09T08:49:26;98015.53;;;16.22;100.00
30081;BME280;16902;50.816;12.828;2023-05-09T08:54:28;98013.75;;;16.54;100.00
30081;BME280;16902;50.816;12.828;2023-05-09T08:59:31;98017.19;;;16.48;100.00
30081;BME280;16902;50.816;12.828;2023-05-09T09:04:37;98016.28;;;16.29;100.00
30081;BME280;16902;50.816;12.828;2023-05-09T09:09:43;98010.28;;;16.53;100.00
30081;BME280;16902;50.816;12.828;2023-05-09T09:14:48;98002.16;;;16.61;99.96
30081;BME280;16902;50.816;12.828;2023-05-09T09:19:54;97993.19;;;16.76;100.00
30081;BME280;16902;50.816;12.828;2023-05-09T09:24:56;97989.19;;;16.98;90.55
30081;BME280;16902;50.816;12.828;2023-05-09T09:30:08;97994.81;;;17.27;85.48
30081;BME280;16902;50.816;12.828;2023-05-09T09:35:11;97998.88;;;17.66;79.32
30081;BME280;16902;50.816;12.828;2023-05-09T09:40:13;97988.44;;;17.96;71.41
30081;BME280;16902;50.816;12.828;2023-05-09T09:45:19;97977.41;;;17.26;74.03
30081;BME280;16902;50.816;12.828;2023-05-09T09:50:21;97977.00;;;17.47;58.13
30081;BME280;16902;50.816;12.828;2023-05-09T09:55:26;97973.03;;;18.11;55.12
30081;BME280;16902;50.816;12.828;2023-05-09T10:00:28;97972.84;;;18.43;49.94
30081;BME280;16902;50.816;12.828;2023-05-09T10:05:30;97973.69;;;18.67;54.85
30081;BME280;16902;50.816;12.828;2023-05-09T10:10:36;97963.50;;;18.70;58.00
30081;BME280;16902;50.816;12.828;2023-05-09T10:15:39;97966.31;;;18.99;61.32
30081;BME280;16902;50.816;12.828;2023-05-09T10:20:55;97952.28;;;18.33;50.39
30081;BME280;16902;50.816;12.828;2023-05-09T10:26:04;97937.47;;;18.32;48.76
30081;BME280;16902;50.816;12.828;2023-05-09T10:31:15;97937.97;;;18.83;57.58
30081;BME280;16902;50.816;12.828;2023-05-09T10:36:21;97930.84;;;18.00;55.44
30081;BME280;16902;50.816;12.828;2023-05-09T10:41:24;97930.50;;;18.80;58.69
30081;BME280;16902;50.816;12.828;2023-05-09T10:46:27;97923.75;;;19.07;40.60
30081;BME280;16902;50.816;12.828;2023-05-09T10:51:29;97907.69;;;19.09;49.90
30081;BME280;16902;50.816;12.828;2023-05-09T10:56:32;97904.47;;;19.30;41.31
30081;BME280;16902;50.816;12.828;2023-05-09T11:01:37;97899.50;;;19.34;37.92
30081;BME280;16902;50.816;12.828;2023-05-09T11:12:14;97892.56;;;23.93;39.94
30081;BME280;16902;50.816;12.828;2023-05-09T11:22:41;97887.75;;;25.98;28.76
30081;BME280;16902;50.816;12.828;2023-05-09T11:27:50;97872.09;;;25.21;30.04
30081;BME280;16902;50.816;12.828;2023-05-09T11:32:53;97879.00;;;25.22;30.46
30081;BME280;16902;50.816;12.828;2023-05-09T11:38:05;97874.09;;;27.02;30.95
30081;BME280;16902;50.816;12.828;2023-05-09T11:43:07;97858.44;;;26.66;28.58
30081;BME280;16902;50.816;12.828;2023-05-09T11:48:09;97867.59;;;28.36;26.37
30081;BME280;16902;50.816;12.828;2023-05-09T11:53:11;97858.00;;;27.98;28.55
30081;BME280;16902;50.816;12.828;2023-05-09T11:58:13;97859.84;;;28.67;26.57
30081;BME280;16902;50.816;12.828;2023-05-09T12:03:15;97846.22;;;30.24;32.33
30081;BME280;16902;50.816;12.828;2023-05-09T12:08:18;97840.63;;;28.93;27.91
30081;BME280;16902;50.816;12.828;2023-05-09T12:13:19;97831.66;;;32.45;26.47
30081;BME280;16902;50.816;12.828;2023-05-09T12:18:22;97824.06;;;27.31;30.79
30081;BME280;16902;50.816;12.828;2023-05-09T12:23:24;97813.97;;;27.04;31.46
30081;BME280;16902;50.816;12.828;2023-05-09T12:28:26;97810.16;;;26.86;31.58
30081;BME280;16902;50.816;12.828;2023-05-09T12:33:29;97803.34;;;26.75;32.95
30081;BME280;16902;50.816;12.828;2023-05-09T12:38:31;97783.81;;;28.17;30.90
30081;BME280;16902;50.816;12.828;2023-05-09T12:43:35;97782.81;;;30.14;33.58
30081;BME280;16902;50.816;12.828;2023-05-09T12:48:37;97775.34;;;26.68;35.99
30081;BME280;16902;50.816;12.828;2023-05-09T12:53:40;97768.66;;;27.18;33.72
30081;BME280;16902;50.816;12.828;2023-05-09T12:58:53;97760.63;;;28.26;33.30
30081;BME280;16902;50.816;12.828;2023-05-09T13:04:05;97747.47;;;26.26;36.87
30081;BME280;16902;50.816;12.828;2023-05-09T13:09:09;97738.22;;;26.42;36.14
30081;BME280;16902;50.816;12.828;2023-05-09T13:14:11;97729.22;;;27.48;34.00
30081;BME280;16902;50.816;12.828;2023-05-09T13:19:13;97745.97;;;30.37;31.08
30081;BME280;16902;50.816;12.828;2023-05-09T13:24:15;97724.50;;;26.54;34.41
30081;BME280;16902;50.816;12.828;2023-05-09T13:29:17;97716.41;;;26.83;34.65
30081;BME280;16902;50.816;12.828;2023-05-09T13:34:19;97709.75;;;29.59;32.17
30081;BME280;16902;50.816;12.828;2023-05-09T13:39:21;97707.84;;;29.37;31.85
30081;BME280;16902;50.816;12.828;2023-05-09T13:44:23;97684.63;;;28.55;32.86
30081;BME280;16902;50.816;12.828;2023-05-09T13:49:25;97687.03;;;26.83;32.50
30081;BME280;16902;50.816;12.828;2023-05-09T13:54:30;97681.25;;;27.19;32.94
30081;BME280;16902;50.816;12.828;2023-05-09T13:59:36;97674.69;;;27.81;32.75
30081;BME280;16902;50.816;12.828;2023-05-09T14:04:38;97665.56;;;31.41;29.57
30081;BME280;16902;50.816;12.828;2023-05-09T14:09:40;97673.81;;;30.13;30.63
30081;BME280;16902;50.816;12.828;2023-05-09T14:14:42;97666.34;;;29.57;30.07
30081;BME280;16902;50.816;12.828;2023-05-09T14:19:44;97659.88;;;31.34;28.89
30081;BME280;16902;50.816;12.828;2023-05-09T14:24:46;97666.22;;;29.62;30.75
30081;BME280;16902;50.816;12.828;2023-05-09T14:29:48;97653.00;;;29.29;30.46
30081;BME280;16902;50.816;12.828;2023-05-09T14:34:50;97632.44;;;29.16;30.50
30081;BME280;16902;50.816;12.828;2023-05-09T14:39:52;97633.78;;;27.10;32.98
30081;BME280;16902;50.816;12.828;2023-05-09T14:44:53;97631.13;;;30.52;30.90
30081;BME280;16902;50.816;12.828;2023-05-09T14:49:55;97631.53;;;28.57;31.66
30081;BME280;16902;50.816;12.828;2023-05-09T14:54:57;97624.88;;;26.77;33.68
30081;BME280;16902;50.816;12.828;2023-05-09T15:00:00;97619.75;;;27.00;33.21
30081;BME280;16902;50.816;12.828;2023-05-09T15:05:05;97609.81;;;27.57;32.57
30081;BME280;16902;50.816;12.828;2023-05-09T15:10:09;97616.34;;;29.16;31.79
30081;BME280;16902;50.816;12.828;2023-05-09T15:20:14;97601.16;;;29.87;31.69
30081;BME280;16902;50.816;12.828;2023-05-09T15:25:17;97603.34;;;27.06;33.68
30081;BME280;16902;50.816;12.828;2023-05-09T15:30:18;97591.66;;;26.46;35.26
30081;BME280;16902;50.816;12.828;2023-05-09T15:35:20;97590.47;;;25.17;36.35
30081;BME280;16902;50.816;12.828;2023-05-09T15:40:23;97573.09;;;24.25;39.00
30081;BME280;16902;50.816;12.828;2023-05-09T15:45:25;97574.81;;;22.11;43.81
30081;BME280;16902;50.816;12.828;2023-05-09T15:50:27;97564.91;;;20.89;51.25
30081;BME280;16902;50.816;12.828;2023-05-09T15:55:30;97561.31;;;20.73;53.39
30081;BME280;16902;50.816;12.828;2023-05-09T16:00:32;97563.75;;;19.37;60.60
30081;BME280;16902;50.816;12.828;2023-05-09T16:05:34;97548.69;;;18.30;65.28
30081;BME280;16902;50.816;12.828;2023-05-09T16:10:36;97546.91;;;18.07;66.57
30081;BME280;16902;50.816;12.828;2023-05-09T16:15:38;97545.75;;;18.03;65.75
30081;BME280;16902;50.816;12.828;2023-05-09T16:20:40;97538.19;;;18.06;66.53
30081;BME280;16902;50.816;12.828;2023-05-09T16:25:42;97525.38;;;17.98;67.87
30081;BME280;16902;50.816;12.828;2023-05-09T16:30:45;97523.69;;;17.92;63.97
30081;BME280;16902;50.816;12.828;2023-05-09T16:35:47;97520.97;;;17.75;68.80
30081;BME280;16902;50.816;12.828;2023-05-09T16:40:49;97519.34;;;17.74;68.40
30081;BME280;16902;50.816;12.828;2023-05-09T16:45:51;97508.81;;;17.62;68.79
30081;BME280;16902;50.816;12.828;2023-05-09T16:50:53;97496.94;;;17.36;73.81
30081;BME280;16902;50.816;12.828;2023-05-09T16:55:55;97486.75;;;17.16;76.28
30081;BME280;16902;50.816;12.828;2023-05-09T17:00:57;97489.84;;;17.13;79.38
30081;BME280;16902;50.816;12.828;2023-05-09T17:06:00;97482.81;;;16.84;74.50
30081;BME280;16902;50.816;12.828;2023-05-09T17:11:02;97474.75;;;16.67;76.10
30081;BME280;16902;50.816;12.828;2023-05-09T17:16:06;97462.50;;;16.49;80.95
30081;BME280;16902;50.816;12.828;2023-05-09T17:21:08;97448.28;;;16.38;83.03
30081;BME280;16902;50.816;12.828;2023-05-09T17:26:10;97446.06;;;16.24;90.26
30081;BME280;16902;50.816;12.828;2023-05-09T17:31:12;97431.50;;;16.09;91.53
30081;BME280;16902;50.816;12.828;2023-05-09T17:36:14;97433.88;;;15.99;92.75
30081;BME280;16902;50.816;12.828;2023-05-09T17:41:16;97432.09;;;15.81;97.47
30081;BME280;16902;50.816;12.828;2023-05-09T17:46:18;97437.34;;;15.81;93.70
30081;BME280;16902;50.816;12.828;2023-05-09T17:51:20;97437.88;;;15.72;99.41
30081;BME280;16902;50.816;12.828;2023-05-09T17:56:22;97427.91;;;15.55;100.00
30081;BME280;16902;50.816;12.828;2023-05-09T18:01:24;97417.19;;;15.20;100.00
30081;BME280;16902;50.816;12.828;2023-05-09T18:06:26;97412.22;;;15.12;100.00
30081;BME280;16902;50.816;12.828;2023-05-09T18:11:29;97405.22;;;15.06;100.00
30081;BME280;16902;50.816;12.828;2023-05-09T18:16:34;97398.47;;;14.73;100.00
30081;BME280;16902;50.816;12.828;2023-05-09T18:21:36;97402.97;;;14.66;100.00
30081;BME280;16902;50.816;12.828;2023-05-09T18:26:39;97391.88;;;14.64;100.00
30081;BME280;16902;50.816;12.828;2023-05-09T18:31:41;97409.66;;;14.62;100.00
30081;BME280;16902;50.816;12.828;2023-05-09T18:36:43;97396.66;;;14.49;100.00
30081;BME280;16902;50.816;12.828;2023-05-09T18:41:45;97397.31;;;14.37;100.00
30081;BME280;16902;50.816;12.828;2023-05-09T18:46:48;97394.28;;;14.09;100.00
30081;BME280;16902;50.816;12.828;2023-05-09T18:51:49;97393.88;;;14.05;100.00
30081;BME280;16902;50.816;12.828;2023-05-09T18:56:51;97400.25;;;13.84;100.00
30081;BME280;16902;50.816;12.828;2023-05-09T19:01:53;97392.69;;;13.63;100.00
30081;BME280;16902;50.816;12.828;2023-05-09T19:06:55;97398.75;;;13.63;100.00
30081;BME280;16902;50.816;12.828;2023-05-09T19:11:59;97389.34;;;13.43;100.00
30081;BME280;16902;50.816;12.828;2023-05-09T19:17:05;97381.72;;;13.41;100.00
30081;BME280;16902;50.816;12.828;2023-05-09T19:22:07;97381.34;;;13.31;100.00
30081;BME280;16902;50.816;12.828;2023-05-09T19:27:09;97367.69;;;13.22;100.00
30081;BME280;16902;50.816;12.828;2023-05-09T19:32:11;97379.16;;;13.08;100.00
30081;BME280;16902;50.816;12.828;2023-05-09T19:37:13;97376.53;;;13.21;100.00
30081;BME280;16902;50.816;12.828;2023-05-09T19:42:15;97373.34;;;13.06;100.00
30081;BME280;16902;50.816;12.828;2023-05-09T19:47:18;97369.56;;;12.75;100.00
30081;BME280;16902;50.816;12.828;2023-05-09T19:52:20;97363.56;;;12.55;100.00
30081;BME280;16902;50.816;12.828;2023-05-09T19:57:23;97352.53;;;12.40;100.00
30081;BME280;16902;50.816;12.828;2023-05-09T20:02:25;97353.53;;;12.25;100.00
30081;BME280;16902;50.816;12.828;2023-05-09T20:07:27;97346.91;;;12.09;100.00
30081;BME280;16902;50.816;12.828;2023-05-09T20:12:30;97338.25;;;11.96;100.00
30081;BME280;16902;50.816;12.828;2023-05-09T20:17:32;97338.63;;;11.93;100.00
30081;BME280;16902;50.816;12.828;2023-05-09T20:22:34;97337.84;;;12.05;100.00
30081;BME280;16902;50.816;12.828;2023-05-09T20:27:36;97339.41;;;11.80;100.00
30081;BME280;16902;50.816;12.828;2023-05-09T20:32:38;97339.19;;;11.81;100.00
30081;BME280;16902;50.816;12.828;2023-05-09T20:37:40;97336.13;;;11.58;100.00
30081;BME280;16902;50.816;12.828;2023-05-09T20:42:42;97338.06;;;11.43;100.00
30081;BME280;16902;50.816;12.828;2023-05-09T20:47:44;97324.59;;;12.00;100.00
30081;BME280;16902;50.816;12.828;2023-05-09T20:52:46;97342.09;;;12.20;100.00
30081;BME280;16902;50.816;12.828;2023-05-09T20:57:48;97321.16;;;12.66;100.00
30081;BME280;16902;50.816;12.828;2023-05-09T21:02:50;97317.38;;;12.62;100.00
30081;BME280;16902;50.816;12.828;2023-05-09T21:07:52;97321.97;;;12.47;100.00
30081;BME280;16902;50.816;12.828;2023-05-09T21:12:54;97315.75;;;12.68;100.00
30081;BME280;16902;50.816;12.828;2023-05-09T21:17:56;97303.53;;;12.48;100.00
30081;BME280;16902;50.816;12.828;2023-05-09T21:22:58;97292.28;;;12.21;100.00
30081;BME280;16902;50.816;12.828;2023-05-09T21:28:00;97301.13;;;12.07;100.00
30081;BME280;16902;50.816;12.828;2023-05-09T21:33:01;97294.91;;;11.95;100.00
30081;BME280;16902;50.816;12.828;2023-05-09T21:38:04;97286.22;;;11.81;100.00
30081;BME280;16902;50.816;12.828;2023-05-09T21:43:06;97282.84;;;11.94;100.00
30081;BME280;16902;50.816;12.828;2023-05-09T21:48:08;97282.25;;;11.98;100.00
30081;BME280;16902;50.816;12.828;2023-05-09T21:53:10;97277.66;;;12.00;100.00
30081;BME280;16902;50.816;12.828;2023-05-09T21:58:12;97288.84;;;11.88;100.00
30081;BME280;16902;50.816;12.828;2023-05-09T22:03:14;97295.25;;;11.72;100.00
30081;BME280;16902;50.816;12.828;2023-05-09T22:08:16;97286.41;;;11.79;100.00
30081;BME280;16902;50.816;12.828;2023-05-09T22:13:18;97280.75;;;11.49;100.00
30081;BME280;16902;50.816;12.828;2023-05-09T22:18:20;97274.59;;;11.09;100.00
30081;BME280;16902;50.816;12.828;2023-05-09T22:23:22;97269.09;;;11.39;100.00
30081;BME280;16902;50.816;12.828;2023-05-09T22:28:24;97266.06;;;11.28;100.00
30081;BME280;16902;50.816;12.828;2023-05-09T22:33:26;97256.81;;;11.19;100.00
30081;BME280;16902;50.816;12.828;2023-05-09T22:38:28;97254.72;;;11.01;100.00
30081;BME280;16902;50.816;12.828;2023-05-09T22:43:30;97260.72;;;10.95;100.00
30081;BME280;16902;50.816;12.828;2023-05-09T22:48:39;97247.13;;;11.06;100.00
30081;BME280;16902;50.816;12.828;2023-05-09T22:53:41;97250.28;;;10.89;100.00
30081;BME280;16902;50.816;12.828;2023-05-09T22:58:43;97252.81;;;10.75;100.00
30081;BME280;16902;50.816;12.828;2023-05-09T23:03:45;97247.22;;;10.44;100.00
30081;BME280;16902;50.816;12.828;2023-05-09T23:08:47;97236.53;;;10.60;100.00
30081;BME280;16902;50.816;12.828;2023-05-09T23:13:49;97229.91;;;10.58;100.00
30081;BME280;16902;50.816;12.828;2023-05-09T23:18:51;97222.50;;;10.54;100.00
30081;BME280;16902;50.816;12.828;2023-05-09T23:23:53;97217.13;;;10.28;100.00
30081;BME280;16902;50.816;12.828;2023-05-09T23:28:54;97217.97;;;10.07;100.00
30081;BME280;16902;50.816;12.828;2023-05-09T23:33:57;97225.78;;;9.86;100.00
30081;BME280;16902;50.816;12.828;2023-05-09T23:38:59;97217.09;;;10.00;100.00
30081;BME280;16902;50.816;12.828;2023-05-09T23:44:01;97218.06;;;9.92;100.00
30081;BME280;16902;50.816;12.828;2023-05-09T23:49:03;97210.44;;;9.91;100.00
30081;BME280;16902;50.816;12.828;2023-05-09T23:54:07;97213.19;;;9.61;100.00
30081;BME280;16902;50.816;12.828;2023-05-09T23:59:09;97208.63;;;10.19;100.00
